Time;durP1;ratioP1;P1;durP2;ratioP2;P2;SDS_P1;SDS_P2;PMS_P1;PMS_P2;Temp;Humidity;BMP_temperature;BMP_pressure;BME280_temperature;BME280_humidity;BME280_pressure;Samples;Min_cycle;Max_cycle;Signal;HPM_P1;HPM_P2
2022/01/14 00:01:27;;;;;;;24.42;12.18;;;5.80;99.90;;;;;;5120195;28;20062;-61
2022/01/14 00:03:53;;;;;;;23.48;11.90;;;5.80;99.90;;;;;;5102037;28;20047;-62
2022/01/14 00:06:18;;;;;;;29.60;13.10;;;5.80;99.90;;;;;;5120621;28;20040;-61
2022/01/14 00:08:44;;;;;;;24.42;12.23;;;5.80;99.90;;;;;;5101487;28;20055;-61
2022/01/14 00:11:15;;;;;;;23.30;11.75;;;5.80;99.90;;;;;;5120558;28;20107;-60
2022/01/14 00:16:15;;;;;;;31.35;14.23;;;5.80;99.90;;;;;;5120786;28;20043;-61
2022/01/14 00:18:41;;;;;;;25.90;13.32;;;5.80;99.90;;;;;;5119908;28;20047;-60
2022/01/14 00:21:07;;;;;;;27.00;14.60;;;5.80;99.90;;;;;;5101242;28;20054;-62
2022/01/14 00:23:37;;;;;;;26.75;13.65;;;5.80;99.90;;;;;;5120330;28;20048;-61
2022/01/14 00:31:42;;;;;;;27.40;13.45;;;5.80;99.90;;;;;;5124160;28;20047;-61
2022/01/14 00:34:09;;;;;;;29.48;13.55;;;5.90;99.90;;;;;;5123781;28;20055;-60
2022/01/14 00:36:34;;;;;;;31.83;13.57;;;5.70;99.90;;;;;;5105502;28;20153;-61
2022/01/14 00:39:00;;;;;;;29.55;13.57;;;5.70;99.90;;;;;;5105191;28;20043;-61
2022/01/14 00:41:26;;;;;;;29.10;13.85;;;5.70;99.90;;;;;;5124629;28;20039;-61
2022/01/14 00:43:59;;;;;;;34.47;13.70;;;5.70;99.90;;;;;;5123715;28;20070;-61
2022/01/14 00:46:25;;;;;;;31.90;13.52;;;5.60;99.90;;;;;;5124415;28;20073;-60
2022/01/14 00:48:50;;;;;;;29.95;13.05;;;5.60;99.90;;;;;;5123554;28;20044;-61
2022/01/14 00:51:16;;;;;;;26.23;12.65;;;5.50;99.90;;;;;;5104791;28;20054;-60
2022/01/14 00:53:42;;;;;;;26.42;14.55;;;5.60;99.90;;;;;;5088450;28;20138;-61
2022/01/14 00:59:15;;;;;;;30.88;14.52;;;5.30;99.90;;;;;;5078353;28;20055;-60
2022/01/14 01:01:45;;;;;;;33.95;15.05;;;5.50;99.90;;;;;;5123740;28;20050;-61
2022/01/14 01:04:13;;;;;;;31.75;14.35;;;5.40;99.90;;;;;;5123470;28;20189;-61
2022/01/14 01:06:40;;;;;;;25.70;13.57;;;5.50;99.90;;;;;;5105636;28;20047;-62
2022/01/14 01:09:11;;;;;;;34.28;14.18;;;5.40;99.90;;;;;;5122993;28;20497;-60
2022/01/14 01:11:47;;;;;;;28.52;14.73;;;5.50;99.90;;;;;;5124108;28;20122;-60
2022/01/14 01:14:18;;;;;;;27.77;13.43;;;5.50;99.90;;;;;;5104952;28;20043;-60
2022/01/14 01:16:44;;;;;;;29.98;14.27;;;5.50;99.90;;;;;;5105333;28;20130;-62
2022/01/14 01:19:10;;;;;;;26.70;13.20;;;5.40;99.90;;;;;;5104679;28;20036;-61
2022/01/14 01:21:36;;;;;;;24.45;13.60;;;5.50;99.90;;;;;;5087526;28;20139;-62
2022/01/14 01:24:02;;;;;;;29.45;13.55;;;5.50;99.90;;;;;;5123760;28;20050;-62
2022/01/14 01:26:30;;;;;;;29.42;13.95;;;5.50;99.90;;;;;;5104315;28;20060;-61
2022/01/14 01:31:41;;;;;;;30.47;13.10;;;5.40;99.90;;;;;;5123043;28;20567;-61
2022/01/14 01:34:19;;;;;;;27.90;13.18;;;5.40;99.90;;;;;;5122876;28;20082;-61
2022/01/14 01:36:48;;;;;;;34.30;14.88;;;5.60;99.90;;;;;;5122545;28;20044;-62
2022/01/14 01:39:17;;;;;;;29.33;12.82;;;5.50;99.90;;;;;;5104297;28;20111;-61
2022/01/14 01:41:47;;;;;;;30.95;13.23;;;5.50;99.90;;;;;;5123648;28;20142;-60
2022/01/14 01:44:15;;;;;;;25.83;12.93;;;5.50;99.90;;;;;;5104143;28;20095;-61
2022/01/14 01:46:43;;;;;;;27.83;12.88;;;5.50;99.90;;;;;;5122997;28;20036;-61
2022/01/14 01:49:10;;;;;;;32.65;13.88;;;5.60;99.90;;;;;;5122595;28;20071;-60
2022/01/14 01:51:36;;;;;;;36.83;14.93;;;5.60;99.90;;;;;;5103704;28;20517;-60
2022/01/14 01:54:02;;;;;;;35.33;15.98;;;5.70;99.90;;;;;;5123180;28;20059;-61
2022/01/14 01:56:28;;;;;;;30.08;14.48;;;5.60;99.90;;;;;;5104031;28;20047;-61
2022/01/14 01:58:56;;;;;;;35.08;15.73;;;5.60;99.90;;;;;;5123165;28;20051;-60
2022/01/14 02:01:23;;;;;;;27.60;14.48;;;5.70;99.90;;;;;;5104394;28;20102;-61
2022/01/14 02:03:50;;;;;;;33.55;15.32;;;5.70;99.90;;;;;;5122527;28;20084;-61
2022/01/14 02:06:17;;;;;;;27.60;14.60;;;5.70;99.90;;;;;;5104327;28;20341;-61
2022/01/14 02:08:43;;;;;;;33.17;15.38;;;5.70;99.90;;;;;;5121977;28;20043;-61
2022/01/14 02:11:09;;;;;;;30.27;14.25;;;5.80;99.90;;;;;;5104195;28;20067;-61
2022/01/14 02:13:35;;;;;;;31.63;15.13;;;5.70;99.90;;;;;;5103659;28;20043;-61
2022/01/14 02:16:12;;;;;;;29.30;16.05;;;5.70;99.90;;;;;;5087486;28;20179;-62
2022/01/14 02:18:49;;;;;;;31.88;15.93;;;5.80;99.90;;;;;;5121827;28;20048;-61
2022/01/14 02:24:32;;;;;;;31.10;15.07;;;5.80;99.90;;;;;;5122453;28;20078;-60
2022/01/14 02:26:57;;;;;;;37.70;16.15;;;5.90;99.90;;;;;;5121538;28;20048;-61
2022/01/14 02:29:23;;;;;;;28.88;15.80;;;5.80;99.90;;;;;;5121978;28;20132;-61
2022/01/14 02:31:49;;;;;;;41.63;17.13;;;5.90;99.90;;;;;;5121844;28;20051;-61
2022/01/14 02:34:16;;;;;;;29.60;15.23;;;5.90;99.90;;;;;;5121562;28;20100;-60
2022/01/14 02:36:43;;;;;;;33.88;17.02;;;5.80;99.90;;;;;;5122252;28;20040;-61
2022/01/14 02:39:12;;;;;;;33.10;16.10;;;5.90;99.90;;;;;;5121585;28;20056;-61
2022/01/14 02:41:39;;;;;;;30.63;16.10;;;5.90;99.90;;;;;;5122204;28;20082;-60
2022/01/14 02:44:19;;;;;;;33.85;16.40;;;5.90;99.90;;;;;;5103091;28;20051;-62
2022/01/14 02:47:04;;;;;;;32.70;17.95;;;5.90;99.90;;;;;;5121615;28;20051;-62
2022/01/14 02:49:32;;;;;;;35.53;17.95;;;5.90;99.90;;;;;;5120404;28;20106;-61
2022/01/14 02:52:02;;;;;;;35.95;17.08;;;5.90;99.90;;;;;;5121053;28;20114;-61
2022/01/14 02:54:39;;;;;;;34.88;17.17;;;6.00;99.90;;;;;;5122011;28;20091;-61
2022/01/14 02:57:08;;;;;;;32.80;16.08;;;5.90;99.90;;;;;;5121307;28;20071;-60
2022/01/14 02:59:36;;;;;;;29.45;15.13;;;6.00;99.90;;;;;;5102826;28;20058;-61
2022/01/14 03:02:06;;;;;;;34.03;16.85;;;6.00;99.90;;;;;;5103759;28;20035;-61
2022/01/14 03:04:36;;;;;;;32.05;17.50;;;6.00;99.90;;;;;;5102453;28;20043;-61
2022/01/14 03:07:03;;;;;;;30.67;15.85;;;6.00;99.90;;;;;;5121777;28;20043;-62
2022/01/14 03:09:29;;;;;;;32.10;16.83;;;6.00;99.90;;;;;;5102517;28;20049;-61
2022/01/14 03:11:59;;;;;;;31.92;16.92;;;6.00;99.90;;;;;;5103342;28;20079;-61
2022/01/14 03:14:25;;;;;;;36.60;17.77;;;6.00;99.90;;;;;;5121132;28;20041;-61
2022/01/14 03:16:58;;;;;;;31.13;16.13;;;6.00;99.90;;;;;;5120960;28;20039;-61
2022/01/14 03:19:26;;;;;;;32.53;17.40;;;6.00;99.90;;;;;;5102164;28;20066;-60
2022/01/14 03:22:04;;;;;;;34.50;16.48;;;6.00;99.90;;;;;;5120720;28;20040;-61
2022/01/14 03:27:02;;;;;;;36.03;17.23;;;5.90;99.90;;;;;;5102402;28;20123;-61
2022/01/14 03:29:28;;;;;;;27.25;16.35;;;5.90;99.90;;;;;;5120724;28;20043;-61
2022/01/14 03:31:54;;;;;;;32.65;16.85;;;6.00;99.90;;;;;;5102627;28;20099;-61
2022/01/14 03:34:20;;;;;;;32.58;17.70;;;6.00;99.90;;;;;;5120498;28;20047;-61
2022/01/14 03:36:46;;;;;;;32.70;16.23;;;6.10;99.90;;;;;;5121183;28;20043;-61
2022/01/14 03:39:12;;;;;;;37.40;17.65;;;6.10;99.90;;;;;;5102120;28;20039;-61
2022/01/14 03:41:38;;;;;;;31.00;17.90;;;6.10;99.90;;;;;;5121402;28;20050;-61
2022/01/14 03:44:04;;;;;;;33.60;17.77;;;6.10;99.90;;;;;;5120217;28;20039;-61
2022/01/14 03:46:30;;;;;;;35.42;17.75;;;6.10;99.90;;;;;;5102255;28;20046;-61
2022/01/14 03:48:56;;;;;;;31.17;16.67;;;6.10;99.90;;;;;;5120236;28;20040;-60
2022/01/14 03:51:27;;;;;;;31.33;17.45;;;6.00;99.90;;;;;;5101773;28;20043;-61
2022/01/14 03:53:52;;;;;;;34.13;16.95;;;6.10;99.90;;;;;;5103398;28;20031;-60
2022/01/14 03:56:18;;;;;;;34.65;17.88;;;6.10;99.90;;;;;;5120007;28;20039;-60
2022/01/14 03:58:44;;;;;;;33.78;17.17;;;6.10;99.90;;;;;;5102555;28;20242;-61
2022/01/14 04:01:11;;;;;;;27.83;16.98;;;6.10;99.90;;;;;;5119810;28;20071;-60
2022/01/14 04:03:38;;;;;;;31.13;17.73;;;6.10;99.90;;;;;;5102337;28;20036;-61
2022/01/14 04:06:04;;;;;;;31.20;17.05;;;6.10;99.90;;;;;;5102032;28;20417;-63
2022/01/14 04:08:29;;;;;;;29.65;15.48;;;6.00;99.90;;;;;;5101859;28;20053;-61
2022/01/14 04:10:57;;;;;;;33.75;17.00;;;6.10;99.90;;;;;;5101904;28;20054;-61
2022/01/14 04:13:35;;;;;;;30.35;16.98;;;6.00;99.90;;;;;;5119715;28;20043;-61
2022/01/14 04:16:01;;;;;;;27.40;14.88;;;6.20;99.90;;;;;;5102340;28;20047;-61
2022/01/14 04:18:27;;;;;;;28.77;15.60;;;6.10;99.90;;;;;;5119826;28;20054;-62
2022/01/14 04:20:52;;;;;;;27.85;15.93;;;6.20;99.90;;;;;;5119879;28;20071;-62
2022/01/14 04:23:22;;;;;;;30.13;15.80;;;6.00;99.90;;;;;;5102029;28;20047;-61
2022/01/14 04:25:53;;;;;;;36.20;19.33;;;6.00;99.90;;;;;;5119804;28;20040;-61
2022/01/14 04:28:21;;;;;;;30.40;17.08;;;5.80;99.90;;;;;;5112649;28;20062;-61
2022/01/14 04:30:48;;;;;;;31.50;16.90;;;5.80;99.90;;;;;;5080878;28;20079;-61
2022/01/14 04:33:14;;;;;;;27.35;14.82;;;5.80;99.90;;;;;;5081932;28;20040;-61
2022/01/14 04:35:40;;;;;;;34.30;16.83;;;5.70;99.90;;;;;;5099509;28;20066;-61
2022/01/14 04:38:06;;;;;;;30.35;15.93;;;5.70;99.90;;;;;;5064818;28;20066;-61
2022/01/14 04:40:32;;;;;;;27.38;14.93;;;5.70;99.90;;;;;;5081629;28;20051;-62
2022/01/14 04:42:59;;;;;;;30.05;15.35;;;5.70;99.90;;;;;;5099407;28;20032;-62
2022/01/14 04:48:02;;;;;;;35.83;17.40;;;5.70;99.90;;;;;;5080967;28;20413;-61
2022/01/14 04:50:28;;;;;;;35.10;17.83;;;5.60;99.90;;;;;;5099744;28;20497;-62
2022/01/14 04:52:54;;;;;;;33.00;18.35;;;5.70;99.90;;;;;;5099204;28;20073;-61
2022/01/14 04:55:22;;;;;;;35.08;15.30;;;5.70;99.90;;;;;;5064769;28;20054;-61
2022/01/14 04:57:48;;;;;;;33.00;17.13;;;5.70;99.90;;;;;;5081632;28;20040;-61
2022/01/14 05:00:16;;;;;;;27.52;16.83;;;5.70;99.90;;;;;;5098989;28;20627;-61
2022/01/14 05:02:42;;;;;;;31.02;17.33;;;5.60;99.90;;;;;;5100087;28;20111;-62
2022/01/14 05:05:09;;;;;;;31.40;18.10;;;5.60;99.90;;;;;;5098994;28;20043;-62
2022/01/14 05:07:35;;;;;;;32.25;17.83;;;5.60;99.90;;;;;;5099922;28;20044;-62
2022/01/14 05:12:33;;;;;;;31.13;16.83;;;5.70;99.90;;;;;;5112454;28;20043;-61
2022/01/14 05:15:01;;;;;;;34.17;19.10;;;5.60;99.90;;;;;;5106345;28;20044;-61
2022/01/14 05:17:27;;;;;;;28.15;17.35;;;5.50;99.90;;;;;;5123235;28;20107;-61
2022/01/14 05:19:54;;;;;;;33.25;17.80;;;5.60;99.90;;;;;;5123055;28;20096;-62
2022/01/14 05:22:21;;;;;;;35.35;17.50;;;5.60;99.90;;;;;;5123114;28;20087;-61
2022/01/14 05:24:47;;;;;;;36.50;18.90;;;5.50;99.90;;;;;;5105807;28;20047;-61
2022/01/14 05:27:13;;;;;;;36.78;17.55;;;5.60;99.90;;;;;;5123148;28;20454;-62
2022/01/14 05:29:39;;;;;;;30.23;16.77;;;5.60;99.90;;;;;;5085446;28;20416;-62
2022/01/14 05:32:09;;;;;;;33.42;17.83;;;5.60;99.90;;;;;;5102931;28;20143;-61
2022/01/14 05:34:36;;;;;;;33.63;17.63;;;5.70;99.90;;;;;;5102449;28;20074;-61
2022/01/14 05:37:04;;;;;;;33.13;17.75;;;5.70;99.90;;;;;;5084977;28;20542;-61
2022/01/14 05:39:30;;;;;;;30.90;17.42;;;5.70;99.90;;;;;;5102260;28;20036;-61
2022/01/14 05:41:58;;;;;;;34.45;17.13;;;5.70;99.90;;;;;;5103266;28;20056;-61
2022/01/14 05:44:24;;;;;;;34.60;18.85;;;5.60;99.90;;;;;;5084237;28;20036;-61
2022/01/14 05:46:50;;;;;;;37.85;18.38;;;5.70;99.90;;;;;;5102240;28;20076;-62
2022/01/14 05:49:17;;;;;;;34.58;17.33;;;5.60;99.90;;;;;;5067286;28;20055;-61
2022/01/14 05:51:44;;;;;;;38.28;17.60;;;5.60;99.90;;;;;;5102087;28;20047;-61
2022/01/14 05:54:09;;;;;;;36.33;20.75;;;5.70;99.90;;;;;;5084707;28;20463;-61
2022/01/14 05:56:35;;;;;;;30.10;17.42;;;5.80;99.90;;;;;;5083948;28;20035;-62
2022/01/14 05:59:01;;;;;;;34.00;18.23;;;5.70;99.90;;;;;;5102871;28;20059;-61
2022/01/14 06:01:30;;;;;;;29.55;18.02;;;5.60;99.90;;;;;;5084056;28;20087;-61
2022/01/14 06:04:02;;;;;;;33.28;17.80;;;5.70;99.90;;;;;;5083677;28;20052;-62
2022/01/14 06:06:29;;;;;;;32.65;17.70;;;5.70;99.90;;;;;;5084317;28;20044;-61
2022/01/14 06:08:55;;;;;;;31.30;17.95;;;5.80;99.90;;;;;;5101765;28;20113;-61
2022/01/14 06:11:20;;;;;;;31.70;17.00;;;5.70;99.90;;;;;;5102469;28;20036;-61
2022/01/14 06:13:46;;;;;;;36.53;17.17;;;5.70;99.90;;;;;;5083287;28;20055;-60
2022/01/14 06:16:13;;;;;;;29.08;16.38;;;5.80;99.90;;;;;;5096103;28;20051;-61
2022/01/14 06:18:39;;;;;;;37.75;16.92;;;5.80;99.90;;;;;;5085541;28;20048;-61
2022/01/14 06:21:05;;;;;;;24.42;14.43;;;5.80;99.90;;;;;;5079726;28;20623;-62
2022/01/14 06:23:31;;;;;;;28.83;15.15;;;5.80;99.90;;;;;;5098219;28;20040;-62
2022/01/14 06:25:56;;;;;;;28.70;15.25;;;5.80;99.90;;;;;;5097864;28;20046;-61
2022/01/14 06:28:22;;;;;;;28.23;15.38;;;5.80;99.90;;;;;;5098393;28;20048;-62
2022/01/14 06:30:48;;;;;;;25.40;13.68;;;5.90;99.90;;;;;;5097867;28;20075;-61
2022/01/14 06:33:14;;;;;;;26.13;12.98;;;5.80;99.90;;;;;;5098735;28;20405;-64
2022/01/14 06:35:40;;;;;;;27.45;14.52;;;5.80;99.90;;;;;;5079992;28;20054;-62
2022/01/14 06:38:06;;;;;;;27.83;13.13;;;5.90;99.90;;;;;;5097784;28;20052;-61
2022/01/14 06:40:32;;;;;;;26.05;12.15;;;5.90;99.90;;;;;;5097497;28;20050;-61
2022/01/14 06:42:58;;;;;;;26.60;12.68;;;5.90;99.90;;;;;;5097358;28;20477;-61
2022/01/14 06:45:24;;;;;;;31.58;12.90;;;5.90;99.90;;;;;;5098213;28;20108;-61
2022/01/14 06:47:50;;;;;;;23.80;13.73;;;5.90;99.90;;;;;;5078771;28;20082;-62
2022/01/14 06:50:17;;;;;;;25.05;13.25;;;6.00;99.90;;;;;;5063038;28;20075;-62
2022/01/14 06:52:43;;;;;;;28.65;12.77;;;5.90;99.90;;;;;;5097857;28;20055;-61
2022/01/14 06:55:09;;;;;;;27.55;12.65;;;5.80;99.90;;;;;;5097945;28;20056;-61
2022/01/14 06:57:36;;;;;;;22.08;10.82;;;5.90;99.90;;;;;;5097874;28;20052;-61
2022/01/14 07:00:04;;;;;;;30.67;13.20;;;5.90;99.90;;;;;;5081514;28;20058;-62
2022/01/14 07:02:30;;;;;;;23.35;11.60;;;6.00;99.90;;;;;;5081509;28;20078;-61
2022/01/14 07:04:56;;;;;;;26.05;10.68;;;6.00;99.90;;;;;;5098717;28;20040;-61
2022/01/14 07:07:21;;;;;;;26.02;11.43;;;5.90;99.90;;;;;;5100492;28;20079;-61
2022/01/14 07:09:56;;;;;;;23.75;11.75;;;6.00;99.90;;;;;;5066005;28;20040;-61
2022/01/14 07:12:23;;;;;;;25.80;10.23;;;6.00;99.90;;;;;;5110480;28;20058;-61
2022/01/14 07:14:49;;;;;;;18.10;9.57;;;6.00;99.90;;;;;;5121351;28;20144;-61
2022/01/14 07:17:15;;;;;;;19.15;9.05;;;6.00;99.90;;;;;;5120622;28;20044;-61
2022/01/14 07:19:41;;;;;;;22.85;9.93;;;6.00;99.90;;;;;;5120957;28;20052;-62
2022/01/14 07:22:07;;;;;;;26.80;9.70;;;6.00;99.90;;;;;;5085310;28;20055;-62
2022/01/14 07:24:33;;;;;;;23.52;9.60;;;6.00;99.90;;;;;;5103283;28;20048;-61
2022/01/14 07:26:59;;;;;;;26.17;11.07;;;6.10;99.90;;;;;;5102556;28;20470;-61
2022/01/14 07:29:24;;;;;;;24.75;9.13;;;6.00;99.90;;;;;;5103706;28;20040;-61
2022/01/14 07:31:51;;;;;;;21.50;9.05;;;6.00;99.90;;;;;;5082630;28;20036;-61
2022/01/14 07:34:18;;;;;;;19.95;9.15;;;6.00;99.90;;;;;;5082161;28;20078;-62
2022/01/14 07:36:43;;;;;;;19.10;9.00;;;5.90;99.90;;;;;;5082000;28;20040;-62
2022/01/14 07:39:09;;;;;;;18.20;8.65;;;6.00;99.90;;;;;;5098668;28;20040;-62
2022/01/14 07:41:35;;;;;;;23.50;9.15;;;6.00;99.90;;;;;;5099533;28;20084;-62
2022/01/14 07:44:02;;;;;;;20.40;8.60;;;6.10;99.90;;;;;;5100230;28;20089;-62
2022/01/14 07:46:28;;;;;;;20.65;8.15;;;6.00;99.90;;;;;;5100422;28;20078;-62
2022/01/14 07:48:54;;;;;;;18.77;8.23;;;6.00;99.90;;;;;;5100382;28;20047;-62
2022/01/14 07:51:19;;;;;;;20.05;7.82;;;6.00;99.90;;;;;;5099879;28;20441;-62
2022/01/14 07:53:45;;;;;;;18.55;8.27;;;6.10;99.90;;;;;;5081977;28;20089;-62
2022/01/14 07:56:13;;;;;;;22.60;8.25;;;6.10;99.90;;;;;;5081627;28;20075;-62
2022/01/14 07:58:40;;;;;;;20.27;8.60;;;6.10;99.90;;;;;;5082843;28;20050;-62
2022/01/14 08:01:06;;;;;;;18.88;8.20;;;6.10;99.90;;;;;;5081342;28;20796;-62
2022/01/14 08:03:32;;;;;;;24.40;8.27;;;6.10;99.90;;;;;;5100495;28;20048;-61
2022/01/14 08:05:58;;;;;;;19.38;7.70;;;6.10;99.90;;;;;;5082038;28;20093;-62
2022/01/14 08:08:24;;;;;;;18.13;8.13;;;6.10;99.90;;;;;;5099830;28;20047;-62
2022/01/14 08:10:50;;;;;;;23.48;8.32;;;6.10;99.90;;;;;;5081987;28;20040;-62
2022/01/14 08:13:16;;;;;;;20.63;10.23;;;6.20;99.90;;;;;;5117337;28;20047;-62
2022/01/14 08:15:42;;;;;;;16.73;7.68;;;6.20;99.90;;;;;;5120993;28;20073;-62
2022/01/14 08:18:09;;;;;;;18.63;7.25;;;6.20;99.90;;;;;;5101551;28;20051;-62
2022/01/14 08:20:34;;;;;;;19.83;8.15;;;6.20;99.90;;;;;;5120437;28;20058;-62
2022/01/14 08:23:00;;;;;;;23.55;8.18;;;6.20;99.90;;;;;;5120224;28;20067;-62
2022/01/14 08:25:29;;;;;;;18.15;7.53;;;6.20;99.90;;;;;;5101661;28;20071;-62
2022/01/14 08:27:55;;;;;;;16.27;7.18;;;6.20;99.90;;;;;;5115892;28;20036;-62
2022/01/14 08:30:20;;;;;;;20.48;7.60;;;6.20;99.90;;;;;;5099466;28;20420;-62
2022/01/14 08:32:46;;;;;;;13.98;7.28;;;6.30;99.90;;;;;;5082119;28;20044;-62
2022/01/14 08:35:12;;;;;;;15.75;7.30;;;6.30;99.90;;;;;;5099283;28;20044;-62
2022/01/14 08:37:38;;;;;;;18.13;7.25;;;6.20;99.90;;;;;;5100010;28;20363;-62
2022/01/14 08:40:06;;;;;;;16.98;7.60;;;6.40;99.90;;;;;;5081612;28;20036;-62
2022/01/14 08:42:32;;;;;;;16.38;7.15;;;6.30;99.90;;;;;;5099564;28;20051;-62
2022/01/14 08:44:58;;;;;;;15.15;7.13;;;6.30;99.90;;;;;;5081860;28;20040;-62
2022/01/14 08:47:24;;;;;;;15.25;6.57;;;6.30;99.90;;;;;;5102080;28;20448;-61
2022/01/14 08:49:50;;;;;;;20.30;7.60;;;6.40;99.90;;;;;;5103760;28;20070;-62
2022/01/14 08:52:16;;;;;;;15.60;6.97;;;6.40;99.90;;;;;;5084927;28;20056;-61
2022/01/14 08:54:42;;;;;;;17.60;6.35;;;6.40;99.90;;;;;;5102538;28;20068;-61
2022/01/14 08:57:08;;;;;;;19.15;6.15;;;6.50;99.90;;;;;;5085143;28;20061;-61
2022/01/14 08:59:34;;;;;;;14.80;6.20;;;6.40;99.90;;;;;;5103406;28;20115;-61
2022/01/14 09:02:00;;;;;;;15.18;6.25;;;6.40;99.90;;;;;;5103538;28;20059;-61
2022/01/14 09:04:26;;;;;;;17.58;6.88;;;6.50;99.90;;;;;;5085011;28;20082;-61
2022/01/14 09:06:52;;;;;;;18.67;6.15;;;6.40;99.90;;;;;;5103727;28;20040;-61
2022/01/14 09:09:17;;;;;;;14.30;5.63;;;6.50;99.90;;;;;;5102836;28;20135;-61
2022/01/14 09:11:43;;;;;;;18.55;6.03;;;6.50;99.90;;;;;;5108599;28;20091;-60
2022/01/14 09:14:09;;;;;;;18.75;7.13;;;6.60;99.90;;;;;;5123467;28;20047;-60
2022/01/14 09:16:35;;;;;;;14.13;5.35;;;6.60;99.90;;;;;;5123531;28;20075;-60
2022/01/14 09:19:02;;;;;;;19.13;4.93;;;6.60;99.90;;;;;;5123581;28;20047;-62
2022/01/14 09:21:28;;;;;;;16.77;6.10;;;6.60;99.90;;;;;;5122829;28;20075;-60
2022/01/14 09:24:03;;;;;;;14.40;5.45;;;6.60;99.90;;;;;;5105637;28;20094;-61
2022/01/14 09:26:33;;;;;;;14.85;5.03;;;6.60;99.90;;;;;;5123271;28;20035;-60
2022/01/14 09:29:00;;;;;;;14.60;5.28;;;6.60;99.90;;;;;;5075139;28;20044;-61
2022/01/14 09:31:26;;;;;;;18.65;5.10;;;6.70;99.90;;;;;;5102996;28;20067;-61
2022/01/14 09:33:51;;;;;;;17.67;4.57;;;6.70;99.90;;;;;;5102721;28;20084;-61
2022/01/14 09:36:17;;;;;;;17.30;5.05;;;6.70;99.90;;;;;;5103005;28;20411;-61
2022/01/14 09:38:43;;;;;;;18.20;5.13;;;6.70;99.90;;;;;;5084255;28;20040;-62
2022/01/14 09:41:09;;;;;;;13.65;5.78;;;6.70;99.90;;;;;;5103178;28;20047;-62
2022/01/14 09:43:38;;;;;;;13.80;4.72;;;6.80;99.90;;;;;;5084248;28;20043;-61
2022/01/14 09:46:06;;;;;;;15.93;4.35;;;6.80;99.90;;;;;;5103088;28;20044;-64
2022/01/14 09:48:32;;;;;;;11.82;3.88;;;6.90;99.90;;;;;;5083986;28;20070;-61
2022/01/14 09:50:59;;;;;;;14.55;4.32;;;6.90;99.90;;;;;;5067152;28;20080;-62
2022/01/14 09:53:26;;;;;;;10.73;3.42;;;6.90;99.90;;;;;;5102746;28;20043;-61
2022/01/14 09:55:52;;;;;;;20.98;4.68;;;6.90;99.90;;;;;;5102023;28;20046;-61
2022/01/14 09:58:18;;;;;;;16.90;4.72;;;7.00;99.90;;;;;;5067364;28;20079;-61
2022/01/14 10:00:45;;;;;;;15.07;4.53;;;7.00;99.90;;;;;;5102055;28;20036;-62
2022/01/14 10:03:25;;;;;;;26.10;3.78;;;6.90;99.90;;;;;;5084453;28;20044;-61
2022/01/14 10:05:55;;;;;;;16.02;4.40;;;6.90;99.90;;;;;;5102339;28;20040;-62
2022/01/14 10:08:24;;;;;;;16.35;3.45;;;7.00;99.90;;;;;;5102071;28;20052;-62
2022/01/14 10:10:59;;;;;;;13.48;3.92;;;7.00;99.90;;;;;;5102456;28;20044;-62
2022/01/14 10:13:31;;;;;;;12.70;3.20;;;7.00;99.90;;;;;;5083327;28;20040;-62
2022/01/14 10:16:09;;;;;;;11.70;4.03;;;7.00;99.90;;;;;;5084132;28;20086;-62
2022/01/14 10:18:38;;;;;;;10.65;3.35;;;7.00;99.90;;;;;;5102027;28;20032;-62
2022/01/14 10:21:06;;;;;;;22.27;5.05;;;6.90;99.90;;;;;;5086652;28;20497;-61
2022/01/14 10:23:59;;;;;;;12.55;3.30;;;7.00;99.90;;;;;;5081964;28;20043;-61
2022/01/14 10:26:26;;;;;;;;;;;7.00;99.90;;;;;;5043666;28;20528;-61
2022/01/14 10:29:07;;;;;;;13.63;3.80;;;7.00;99.90;;;;;;5063884;28;19924;-61
2022/01/14 10:31:35;;;;;;;17.33;4.35;;;7.00;99.90;;;;;;5063592;28;20052;-61
2022/01/14 10:34:13;;;;;;;16.60;3.95;;;7.00;99.90;;;;;;5081316;28;20047;-61
2022/01/14 10:36:42;;;;;;;13.55;4.50;;;7.10;99.90;;;;;;5063827;28;20444;-62
2022/01/14 10:39:18;;;;;;;16.15;4.00;;;7.00;99.90;;;;;;5080923;28;20040;-62
2022/01/14 10:41:44;;;;;;;16.88;4.60;;;6.90;99.90;;;;;;5063804;28;20064;-62
2022/01/14 10:44:31;;;;;;;18.35;4.90;;;6.90;99.90;;;;;;5063042;28;20052;-62
2022/01/14 10:47:18;;;;;;;15.98;3.75;;;7.00;99.90;;;;;;5080893;28;20645;-62
2022/01/14 10:49:46;;;;;;;17.20;4.18;;;7.00;99.90;;;;;;5063228;28;20056;-62
2022/01/14 10:52:23;;;;;;;17.95;4.13;;;7.00;99.90;;;;;;5062517;28;20044;-62
2022/01/14 10:54:55;;;;;;;11.80;3.78;;;7.00;99.90;;;;;;5063191;28;20044;-62
2022/01/14 10:57:27;;;;;;;14.55;4.88;;;6.90;99.90;;;;;;5062858;28;20425;-62
2022/01/14 10:59:55;;;;;;;19.50;4.20;;;7.00;99.90;;;;;;5080364;28;20137;-62
2022/01/14 11:02:37;;;;;;;17.48;4.40;;;7.10;99.90;;;;;;5062987;28;20067;-62
2022/01/14 11:05:11;;;;;;;17.15;4.80;;;7.10;99.90;;;;;;5062140;28;20044;-62
2022/01/14 11:07:38;;;;;;;15.75;4.30;;;7.00;99.90;;;;;;5062782;28;20104;-62
2022/01/14 11:10:16;;;;;;;17.88;5.38;;;7.00;99.90;;;;;;5079496;28;20048;-61
2022/01/14 11:12:43;;;;;;;15.05;4.53;;;7.10;99.90;;;;;;5062144;28;20087;-62
2022/01/14 11:15:09;;;;;;;23.45;4.60;;;7.00;99.90;;;;;;5062633;28;20054;-62
2022/01/14 11:17:40;;;;;;;21.10;6.97;;;7.10;99.90;;;;;;5080268;28;20090;-61
2022/01/14 11:20:08;;;;;;;17.35;4.68;;;7.10;99.90;;;;;;5080519;28;20045;-63
2022/01/14 11:25:20;;;;;;;21.33;4.65;;;7.00;99.90;;;;;;5080248;28;20047;-62
2022/01/14 11:27:55;;;;;;;20.05;4.93;;;7.10;99.90;;;;;;5062571;28;20070;-61
2022/01/14 11:30:32;;;;;;;17.02;4.68;;;7.20;99.90;;;;;;5062714;28;20045;-61
2022/01/14 11:33:02;;;;;;;17.35;4.60;;;7.10;99.90;;;;;;5080812;28;20127;-61
2022/01/14 11:35:29;;;;;;;16.15;5.10;;;7.20;99.90;;;;;;5080087;28;20048;-61
2022/01/14 11:37:55;;;;;;;19.17;5.32;;;7.10;99.90;;;;;;5062068;28;20051;-61
2022/01/14 11:40:21;;;;;;;21.23;5.22;;;7.20;99.90;;;;;;5080350;28;20048;-61
2022/01/14 11:42:50;;;;;;;16.30;4.68;;;7.20;99.90;;;;;;5079957;28;20048;-61
2022/01/14 11:45:40;;;;;;;18.98;5.57;;;7.20;99.90;;;;;;5062511;28;20079;-62
2022/01/14 11:48:07;;;;;;;16.70;6.20;;;7.20;99.90;;;;;;5079611;28;20132;-61
2022/01/14 11:50:32;;;;;;;22.05;5.47;;;7.30;99.90;;;;;;5045287;28;20075;-61
2022/01/14 11:52:59;;;;;;;18.05;5.53;;;7.30;99.90;;;;;;5080007;28;20044;-61
2022/01/14 11:55:29;;;;;;;21.20;5.00;;;7.30;99.90;;;;;;5079868;28;20051;-61
2022/01/14 11:58:00;;;;;;;25.95;5.65;;;7.30;99.90;;;;;;5062030;28;20066;-61
2022/01/14 12:00:30;;;;;;;18.13;4.97;;;7.30;99.90;;;;;;5079614;28;20052;-61
2022/01/14 12:03:25;;;;;;;14.80;5.47;;;7.30;99.90;;;;;;5080234;28;20067;-61
2022/01/14 12:05:57;;;;;;;22.58;5.15;;;7.30;99.90;;;;;;5065762;28;20082;-61
2022/01/14 12:08:30;;;;;;;18.70;4.68;;;7.30;99.90;;;;;;5079857;28;20051;-61
2022/01/14 12:11:04;;;;;;;;;;;7.30;99.90;;;;;;5080538;28;20048;-61
2022/01/14 12:13:49;;;;;;;22.00;4.78;;;7.40;99.90;;;;;;5041388;28;19958;-61
2022/01/14 12:18:58;;;;;;;21.15;4.70;;;7.40;99.90;;;;;;5059583;28;20103;-61
2022/01/14 12:21:42;;;;;;;17.27;3.70;;;7.80;99.90;;;;;;5058419;28;20049;-61
2022/01/14 12:24:38;;;;;;;20.55;5.32;;;7.40;99.90;;;;;;5059947;28;20084;-61
2022/01/14 12:27:05;;;;;;;19.52;4.82;;;7.40;99.90;;;;;;5041515;28;20083;-61
2022/01/14 12:29:32;;;;;;;17.88;4.18;;;7.40;99.90;;;;;;5077157;28;20058;-61
2022/01/14 12:32:07;;;;;;;21.65;4.60;;;7.50;99.90;;;;;;5079904;28;20094;-60
2022/01/14 12:34:38;;;;;;;15.25;4.68;;;7.30;99.90;;;;;;5061032;28;20052;-61
2022/01/14 12:37:05;;;;;;;20.75;4.72;;;7.40;99.90;;;;;;5045638;28;20469;-61
2022/01/14 12:39:32;;;;;;;19.80;5.35;;;7.40;99.90;;;;;;5079179;28;20047;-62
2022/01/14 12:41:59;;;;;;;17.42;4.60;;;7.40;99.90;;;;;;5061877;28;20045;-61
2022/01/14 12:44:26;;;;;;;20.35;4.40;;;7.40;99.90;;;;;;5079586;28;20047;-61
2022/01/14 12:47:09;;;;;;;19.25;4.28;;;7.40;99.90;;;;;;5079120;28;20075;-61
2022/01/14 12:49:40;;;;;;;19.48;5.00;;;7.50;99.90;;;;;;5061269;28;20045;-60
2022/01/14 12:52:14;;;;;;;22.05;5.07;;;7.40;99.90;;;;;;5078915;28;20849;-61
2022/01/14 12:54:42;;;;;;;20.42;5.15;;;7.40;99.90;;;;;;5079804;28;20048;-61
2022/01/14 12:57:13;;;;;;;23.98;5.63;;;7.40;99.90;;;;;;5045043;28;20045;-61
2022/01/14 12:59:40;;;;;;;20.38;5.25;;;7.50;99.90;;;;;;5079096;28;20436;-61
2022/01/14 13:02:07;;;;;;;21.10;5.10;;;7.50;99.90;;;;;;5061521;28;20052;-61
2022/01/14 13:04:33;;;;;;;20.88;5.43;;;7.40;99.90;;;;;;5078992;28;20092;-62
2022/01/14 13:07:02;;;;;;;25.63;6.63;;;7.50;99.90;;;;;;5079933;28;20044;-61
2022/01/14 13:09:34;;;;;;;29.15;5.43;;;7.40;99.90;;;;;;5078850;28;20080;-61
2022/01/14 13:12:14;;;;;;;19.30;4.85;;;7.40;99.90;;;;;;5079046;28;20537;-62
2022/01/14 13:14:48;;;;;;;28.95;5.93;;;7.40;99.90;;;;;;5061181;28;20052;-62
2022/01/14 13:17:18;;;;;;;30.20;5.97;;;7.40;99.90;;;;;;5078670;28;20040;-62
2022/01/14 13:19:47;;;;;;;20.90;5.40;;;7.40;99.90;;;;;;5079005;28;20076;-62